sensor_id;sensor_type;location;lat;lon;timestamp;P1;durP1;ratioP1;P2;durP2;ratioP2
6163;SDS011;3114;48.362;10.994;2022-10-31T00:01:32;12.77;;;5.25;;
6163;SDS011;3114;48.362;10.994;2022-10-31T00:04:00;12.30;;;4.85;;
6163;SDS011;3114;48.362;10.994;2022-10-31T00:06:28;9.18;;;6.75;;
6163;SDS011;3114;48.362;10.994;2022-10-31T00:08:56;12.82;;;6.80;;
6163;SDS011;3114;48.362;10.994;2022-10-31T00:11:24;11.65;;;5.55;;
6163;SDS011;3114;48.362;10.994;2022-10-31T00:13:51;11.98;;;5.32;;
6163;SDS011;3114;48.362;10.994;2022-10-31T00:16:19;11.88;;;4.80;;
6163;SDS011;3114;48.362;10.994;2022-10-31T00:19:06;12.02;;;5.30;;
6163;SDS011;3114;48.362;10.994;2022-10-31T00:21:35;10.48;;;5.20;;
6163;SDS011;3114;48.362;10.994;2022-10-31T00:24:02;9.02;;;4.60;;
6163;SDS011;3114;48.362;10.994;2022-10-31T00:26:29;11.43;;;5.18;;
6163;SDS011;3114;48.362;10.994;2022-10-31T00:28:57;13.85;;;5.43;;
6163;SDS011;3114;48.362;10.994;2022-10-31T00:31:24;14.65;;;5.45;;
6163;SDS011;3114;48.362;10.994;2022-10-31T00:33:51;10.38;;;5.10;;
6163;SDS011;3114;48.362;10.994;2022-10-31T00:36:18;11.35;;;4.88;;
6163;SDS011;3114;48.362;10.994;2022-10-31T00:38:47;14.68;;;5.22;;
6163;SDS011;3114;48.362;10.994;2022-10-31T00:41:31;8.48;;;4.85;;
6163;SDS011;3114;48.362;10.994;2022-10-31T00:43:58;11.45;;;4.47;;
6163;SDS011;3114;48.362;10.994;2022-10-31T00:46:25;10.00;;;4.35;;
6163;SDS011;3114;48.362;10.994;2022-10-31T00:48:52;12.43;;;5.40;;
6163;SDS011;3114;48.362;10.994;2022-10-31T00:51:19;10.10;;;5.13;;
6163;SDS011;3114;48.362;10.994;2022-10-31T00:53:45;10.75;;;4.72;;
6163;SDS011;3114;48.362;10.994;2022-10-31T00:56:14;10.30;;;4.72;;
6163;SDS011;3114;48.362;10.994;2022-10-31T00:58:41;12.82;;;4.95;;
6163;SDS011;3114;48.362;10.994;2022-10-31T01:01:08;7.97;;;4.68;;
6163;SDS011;3114;48.362;10.994;2022-10-31T01:03:35;11.40;;;5.45;;
6163;SDS011;3114;48.362;10.994;2022-10-31T01:06:04;8.75;;;4.75;;
6163;SDS011;3114;48.362;10.994;2022-10-31T01:08:33;9.10;;;4.25;;
6163;SDS011;3114;48.362;10.994;2022-10-31T01:11:05;10.50;;;5.10;;
6163;SDS011;3114;48.362;10.994;2022-10-31T01:13:33;8.90;;;4.55;;
6163;SDS011;3114;48.362;10.994;2022-10-31T01:16:01;9.80;;;4.78;;
6163;SDS011;3114;48.362;10.994;2022-10-31T01:18:30;13.35;;;4.22;;
6163;SDS011;3114;48.362;10.994;2022-10-31T01:20:58;10.10;;;4.28;;
6163;SDS011;3114;48.362;10.994;2022-10-31T01:23:29;11.30;;;4.40;;
6163;SDS011;3114;48.362;10.994;2022-10-31T01:26:05;9.35;;;4.00;;
6163;SDS011;3114;48.362;10.994;2022-10-31T01:28:33;10.95;;;4.15;;
6163;SDS011;3114;48.362;10.994;2022-10-31T01:31:02;11.95;;;4.20;;
6163;SDS011;3114;48.362;10.994;2022-10-31T01:33:31;12.10;;;5.90;;
6163;SDS011;3114;48.362;10.994;2022-10-31T01:35:58;10.50;;;4.18;;
6163;SDS011;3114;48.362;10.994;2022-10-31T01:38:25;10.30;;;4.18;;
6163;SDS011;3114;48.362;10.994;2022-10-31T01:41:10;9.30;;;3.72;;
6163;SDS011;3114;48.362;10.994;2022-10-31T01:43:42;9.48;;;3.95;;
6163;SDS011;3114;48.362;10.994;2022-10-31T01:46:15;11.00;;;3.78;;
6163;SDS011;3114;48.362;10.994;2022-10-31T01:48:45;10.32;;;3.92;;
6163;SDS011;3114;48.362;10.994;2022-10-31T01:51:13;8.57;;;3.55;;
6163;SDS011;3114;48.362;10.994;2022-10-31T01:53:43;11.85;;;4.63;;
6163;SDS011;3114;48.362;10.994;2022-10-31T01:56:13;12.52;;;4.10;;
6163;SDS011;3114;48.362;10.994;2022-10-31T01:58:43;10.63;;;3.78;;
6163;SDS011;3114;48.362;10.994;2022-10-31T02:01:12;11.95;;;4.20;;
6163;SDS011;3114;48.362;10.994;2022-10-31T02:03:40;11.02;;;3.65;;
6163;SDS011;3114;48.362;10.994;2022-10-31T02:06:10;10.88;;;3.90;;
6163;SDS011;3114;48.362;10.994;2022-10-31T02:08:46;9.80;;;4.50;;
6163;SDS011;3114;48.362;10.994;2022-10-31T02:11:15;13.73;;;8.15;;
6163;SDS011;3114;48.362;10.994;2022-10-31T02:13:42;8.48;;;5.07;;
6163;SDS011;3114;48.362;10.994;2022-10-31T02:16:09;12.02;;;4.50;;
6163;SDS011;3114;48.362;10.994;2022-10-31T02:18:36;15.02;;;4.10;;
6163;SDS011;3114;48.362;10.994;2022-10-31T02:21:05;11.45;;;4.07;;
6163;SDS011;3114;48.362;10.994;2022-10-31T02:23:45;13.75;;;3.92;;
6163;SDS011;3114;48.362;10.994;2022-10-31T02:26:45;10.02;;;3.90;;
6163;SDS011;3114;48.362;10.994;2022-10-31T02:32:29;11.93;;;4.03;;
6163;SDS011;3114;48.362;10.994;2022-10-31T02:35:10;14.52;;;4.72;;
6163;SDS011;3114;48.362;10.994;2022-10-31T02:37:44;15.48;;;4.40;;
6163;SDS011;3114;48.362;10.994;2022-10-31T02:40:16;10.90;;;4.05;;
6163;SDS011;3114;48.362;10.994;2022-10-31T02:42:49;9.80;;;4.20;;
6163;SDS011;3114;48.362;10.994;2022-10-31T02:45:22;8.90;;;3.78;;
6163;SDS011;3114;48.362;10.994;2022-10-31T02:47:55;14.77;;;4.78;;
6163;SDS011;3114;48.362;10.994;2022-10-31T02:50:26;8.95;;;3.90;;
6163;SDS011;3114;48.362;10.994;2022-10-31T02:52:57;10.52;;;4.10;;
6163;SDS011;3114;48.362;10.994;2022-10-31T02:55:44;7.78;;;4.25;;
6163;SDS011;3114;48.362;10.994;2022-10-31T02:58:17;11.95;;;3.85;;
6163;SDS011;3114;48.362;10.994;2022-10-31T03:00:51;9.63;;;3.95;;
6163;SDS011;3114;48.362;10.994;2022-10-31T03:03:44;15.38;;;3.88;;
6163;SDS011;3114;48.362;10.994;2022-10-31T03:06:24;9.63;;;3.95;;
6163;SDS011;3114;48.362;10.994;2022-10-31T03:08:59;8.40;;;5.07;;
6163;SDS011;3114;48.362;10.994;2022-10-31T03:11:35;9.98;;;5.00;;
6163;SDS011;3114;48.362;10.994;2022-10-31T03:14:17;12.07;;;4.13;;
6163;SDS011;3114;48.362;10.994;2022-10-31T03:16:47;6.68;;;3.88;;
6163;SDS011;3114;48.362;10.994;2022-10-31T03:19:18;13.52;;;4.32;;
6163;SDS011;3114;48.362;10.994;2022-10-31T03:21:50;12.45;;;4.07;;
6163;SDS011;3114;48.362;10.994;2022-10-31T03:24:21;9.60;;;3.53;;
6163;SDS011;3114;48.362;10.994;2022-10-31T03:26:51;10.40;;;4.13;;
6163;SDS011;3114;48.362;10.994;2022-10-31T03:29:22;7.05;;;3.85;;
6163;SDS011;3114;48.362;10.994;2022-10-31T03:31:53;8.55;;;3.92;;
6163;SDS011;3114;48.362;10.994;2022-10-31T03:34:24;7.45;;;4.15;;
6163;SDS011;3114;48.362;10.994;2022-10-31T03:36:54;8.13;;;4.05;;
6163;SDS011;3114;48.362;10.994;2022-10-31T03:39:23;11.13;;;4.10;;
6163;SDS011;3114;48.362;10.994;2022-10-31T03:41:53;7.47;;;4.00;;
6163;SDS011;3114;48.362;10.994;2022-10-31T03:44:23;9.48;;;3.95;;
6163;SDS011;3114;48.362;10.994;2022-10-31T03:46:55;10.95;;;4.30;;
6163;SDS011;3114;48.362;10.994;2022-10-31T03:49:22;11.32;;;4.03;;
6163;SDS011;3114;48.362;10.994;2022-10-31T03:51:52;8.68;;;3.97;;
6163;SDS011;3114;48.362;10.994;2022-10-31T03:54:24;7.05;;;4.38;;
6163;SDS011;3114;48.362;10.994;2022-10-31T03:56:56;7.82;;;4.05;;
6163;SDS011;3114;48.362;10.994;2022-10-31T03:59:26;8.65;;;4.00;;
6163;SDS011;3114;48.362;10.994;2022-10-31T04:02:00;8.98;;;4.40;;
6163;SDS011;3114;48.362;10.994;2022-10-31T04:04:29;10.57;;;4.05;;
6163;SDS011;3114;48.362;10.994;2022-10-31T04:06:58;8.43;;;4.50;;
6163;SDS011;3114;48.362;10.994;2022-10-31T04:09:27;9.25;;;4.40;;
6163;SDS011;3114;48.362;10.994;2022-10-31T04:11:57;11.85;;;3.65;;
6163;SDS011;3114;48.362;10.994;2022-10-31T04:14:27;8.52;;;4.18;;
6163;SDS011;3114;48.362;10.994;2022-10-31T04:16:57;8.27;;;3.70;;
6163;SDS011;3114;48.362;10.994;2022-10-31T04:19:24;9.40;;;4.30;;
6163;SDS011;3114;48.362;10.994;2022-10-31T04:21:51;7.88;;;3.75;;
6163;SDS011;3114;48.362;10.994;2022-10-31T04:24:19;10.02;;;4.45;;
6163;SDS011;3114;48.362;10.994;2022-10-31T04:26:46;11.15;;;4.35;;
6163;SDS011;3114;48.362;10.994;2022-10-31T04:29:13;8.57;;;3.95;;
6163;SDS011;3114;48.362;10.994;2022-10-31T04:31:39;7.22;;;3.25;;
6163;SDS011;3114;48.362;10.994;2022-10-31T04:34:06;12.90;;;4.07;;
6163;SDS011;3114;48.362;10.994;2022-10-31T04:36:33;9.45;;;3.83;;
6163;SDS011;3114;48.362;10.994;2022-10-31T04:39:00;7.72;;;3.55;;
6163;SDS011;3114;48.362;10.994;2022-10-31T04:41:28;11.27;;;3.92;;
6163;SDS011;3114;48.362;10.994;2022-10-31T04:43:55;8.57;;;4.50;;
6163;SDS011;3114;48.362;10.994;2022-10-31T04:46:22;10.77;;;8.90;;
6163;SDS011;3114;48.362;10.994;2022-10-31T04:48:49;8.15;;;7.10;;
6163;SDS011;3114;48.362;10.994;2022-10-31T04:51:15;11.27;;;5.95;;
6163;SDS011;3114;48.362;10.994;2022-10-31T04:53:42;10.52;;;6.68;;
6163;SDS011;3114;48.362;10.994;2022-10-31T04:56:09;9.05;;;6.70;;
6163;SDS011;3114;48.362;10.994;2022-10-31T04:58:37;8.25;;;6.20;;
6163;SDS011;3114;48.362;10.994;2022-10-31T05:01:04;11.93;;;5.45;;
6163;SDS011;3114;48.362;10.994;2022-10-31T05:03:31;8.27;;;5.53;;
6163;SDS011;3114;48.362;10.994;2022-10-31T05:05:58;9.50;;;6.22;;
6163;SDS011;3114;48.362;10.994;2022-10-31T05:08:24;8.57;;;4.10;;
6163;SDS011;3114;48.362;10.994;2022-10-31T05:10:51;13.27;;;5.57;;
6163;SDS011;3114;48.362;10.994;2022-10-31T05:13:18;12.30;;;5.30;;
6163;SDS011;3114;48.362;10.994;2022-10-31T05:15:46;7.00;;;3.85;;
6163;SDS011;3114;48.362;10.994;2022-10-31T05:18:13;7.43;;;3.40;;
6163;SDS011;3114;48.362;10.994;2022-10-31T05:20:42;10.98;;;4.97;;
6163;SDS011;3114;48.362;10.994;2022-10-31T05:23:09;12.80;;;6.78;;
6163;SDS011;3114;48.362;10.994;2022-10-31T05:25:36;9.27;;;4.72;;
6163;SDS011;3114;48.362;10.994;2022-10-31T05:28:03;10.70;;;5.70;;
6163;SDS011;3114;48.362;10.994;2022-10-31T05:30:30;5.65;;;3.72;;
6163;SDS011;3114;48.362;10.994;2022-10-31T05:32:59;11.13;;;4.15;;
6163;SDS011;3114;48.362;10.994;2022-10-31T05:35:27;11.18;;;3.88;;
6163;SDS011;3114;48.362;10.994;2022-10-31T05:37:56;10.27;;;3.97;;
6163;SDS011;3114;48.362;10.994;2022-10-31T05:40:24;7.10;;;4.18;;
6163;SDS011;3114;48.362;10.994;2022-10-31T05:42:52;7.60;;;3.72;;
6163;SDS011;3114;48.362;10.994;2022-10-31T05:45:20;10.63;;;3.78;;
6163;SDS011;3114;48.362;10.994;2022-10-31T05:47:51;13.30;;;3.88;;
6163;SDS011;3114;48.362;10.994;2022-10-31T05:50:20;9.52;;;3.45;;
6163;SDS011;3114;48.362;10.994;2022-10-31T05:52:47;6.57;;;3.35;;
6163;SDS011;3114;48.362;10.994;2022-10-31T05:55:14;10.35;;;3.33;;
6163;SDS011;3114;48.362;10.994;2022-10-31T05:57:40;7.15;;;3.42;;
6163;SDS011;3114;48.362;10.994;2022-10-31T06:00:08;8.13;;;3.20;;
6163;SDS011;3114;48.362;10.994;2022-10-31T06:02:35;8.38;;;3.35;;
6163;SDS011;3114;48.362;10.994;2022-10-31T06:05:02;8.10;;;3.10;;
6163;SDS011;3114;48.362;10.994;2022-10-31T06:07:33;6.50;;;3.30;;
6163;SDS011;3114;48.362;10.994;2022-10-31T06:10:01;7.22;;;3.53;;
6163;SDS011;3114;48.362;10.994;2022-10-31T06:12:29;11.68;;;3.67;;
6163;SDS011;3114;48.362;10.994;2022-10-31T06:14:56;7.45;;;3.47;;
6163;SDS011;3114;48.362;10.994;2022-10-31T06:17:23;5.93;;;3.30;;
6163;SDS011;3114;48.362;10.994;2022-10-31T06:19:50;11.65;;;3.20;;
6163;SDS011;3114;48.362;10.994;2022-10-31T06:22:17;5.88;;;3.20;;
6163;SDS011;3114;48.362;10.994;2022-10-31T06:24:45;8.73;;;3.22;;
6163;SDS011;3114;48.362;10.994;2022-10-31T06:27:12;9.75;;;3.55;;
6163;SDS011;3114;48.362;10.994;2022-10-31T06:29:39;9.73;;;5.93;;
6163;SDS011;3114;48.362;10.994;2022-10-31T06:32:05;8.32;;;4.05;;
6163;SDS011;3114;48.362;10.994;2022-10-31T06:34:35;11.13;;;5.03;;
6163;SDS011;3114;48.362;10.994;2022-10-31T06:37:02;9.77;;;4.75;;
6163;SDS011;3114;48.362;10.994;2022-10-31T06:39:29;10.90;;;5.50;;
6163;SDS011;3114;48.362;10.994;2022-10-31T06:41:57;9.68;;;5.80;;
6163;SDS011;3114;48.362;10.994;2022-10-31T06:44:24;10.48;;;5.90;;
6163;SDS011;3114;48.362;10.994;2022-10-31T06:46:51;11.05;;;6.22;;
6163;SDS011;3114;48.362;10.994;2022-10-31T06:49:18;8.90;;;6.97;;
6163;SDS011;3114;48.362;10.994;2022-10-31T06:51:46;7.80;;;6.43;;
6163;SDS011;3114;48.362;10.994;2022-10-31T06:54:13;8.10;;;7.03;;
6163;SDS011;3114;48.362;10.994;2022-10-31T06:56:58;9.35;;;6.40;;
6163;SDS011;3114;48.362;10.994;2022-10-31T06:59:25;7.38;;;5.35;;
6163;SDS011;3114;48.362;10.994;2022-10-31T07:01:51;9.73;;;6.43;;
6163;SDS011;3114;48.362;10.994;2022-10-31T07:04:18;8.32;;;6.47;;
6163;SDS011;3114;48.362;10.994;2022-10-31T07:06:45;9.57;;;7.15;;
6163;SDS011;3114;48.362;10.994;2022-10-31T07:09:12;9.43;;;7.38;;
6163;SDS011;3114;48.362;10.994;2022-10-31T07:11:38;8.77;;;7.85;;
6163;SDS011;3114;48.362;10.994;2022-10-31T07:14:07;7.47;;;6.78;;
6163;SDS011;3114;48.362;10.994;2022-10-31T07:16:33;9.13;;;7.80;;
6163;SDS011;3114;48.362;10.994;2022-10-31T07:19:00;11.38;;;8.18;;
6163;SDS011;3114;48.362;10.994;2022-10-31T07:21:27;8.50;;;7.30;;
6163;SDS011;3114;48.362;10.994;2022-10-31T07:23:54;10.70;;;3.60;;
6163;SDS011;3114;48.362;10.994;2022-10-31T07:26:21;8.75;;;3.80;;
6163;SDS011;3114;48.362;10.994;2022-10-31T07:28:48;8.82;;;3.42;;
6163;SDS011;3114;48.362;10.994;2022-10-31T07:31:16;9.85;;;3.88;;
6163;SDS011;3114;48.362;10.994;2022-10-31T07:33:43;7.03;;;3.42;;
6163;SDS011;3114;48.362;10.994;2022-10-31T07:36:09;5.65;;;3.55;;
6163;SDS011;3114;48.362;10.994;2022-10-31T07:38:36;6.45;;;3.72;;
6163;SDS011;3114;48.362;10.994;2022-10-31T07:41:03;7.63;;;3.90;;
6163;SDS011;3114;48.362;10.994;2022-10-31T07:43:30;6.90;;;3.72;;
6163;SDS011;3114;48.362;10.994;2022-10-31T07:45:57;10.52;;;3.70;;
6163;SDS011;3114;48.362;10.994;2022-10-31T07:48:25;10.70;;;3.60;;
6163;SDS011;3114;48.362;10.994;2022-10-31T07:50:52;6.90;;;4.18;;
6163;SDS011;3114;48.362;10.994;2022-10-31T07:53:19;7.68;;;3.60;;
6163;SDS011;3114;48.362;10.994;2022-10-31T07:55:45;8.60;;;4.07;;
6163;SDS011;3114;48.362;10.994;2022-10-31T07:58:13;9.80;;;3.70;;
6163;SDS011;3114;48.362;10.994;2022-10-31T08:00:41;9.68;;;4.10;;
6163;SDS011;3114;48.362;10.994;2022-10-31T08:03:10;8.82;;;4.43;;
6163;SDS011;3114;48.362;10.994;2022-10-31T08:05:39;10.65;;;3.97;;
6163;SDS011;3114;48.362;10.994;2022-10-31T08:08:07;7.55;;;3.72;;
6163;SDS011;3114;48.362;10.994;2022-10-31T08:10:34;8.90;;;3.72;;
6163;SDS011;3114;48.362;10.994;2022-10-31T08:13:02;7.22;;;4.00;;
6163;SDS011;3114;48.362;10.994;2022-10-31T08:15:30;7.55;;;3.85;;
6163;SDS011;3114;48.362;10.994;2022-10-31T08:17:59;10.07;;;3.63;;
6163;SDS011;3114;48.362;10.994;2022-10-31T08:20:27;8.15;;;4.15;;
6163;SDS011;3114;48.362;10.994;2022-10-31T08:22:56;7.55;;;3.85;;
6163;SDS011;3114;48.362;10.994;2022-10-31T08:25:24;9.13;;;4.00;;
6163;SDS011;3114;48.362;10.994;2022-10-31T08:27:52;9.10;;;4.30;;
6163;SDS011;3114;48.362;10.994;2022-10-31T08:30:20;12.25;;;4.40;;
6163;SDS011;3114;48.362;10.994;2022-10-31T08:32:56;9.27;;;4.40;;
6163;SDS011;3114;48.362;10.994;2022-10-31T08:35:23;6.47;;;3.90;;
6163;SDS011;3114;48.362;10.994;2022-10-31T08:37:51;12.05;;;3.90;;
6163;SDS011;3114;48.362;10.994;2022-10-31T08:40:20;10.23;;;4.15;;
6163;SDS011;3114;48.362;10.994;2022-10-31T08:42:47;10.35;;;4.70;;
6163;SDS011;3114;48.362;10.994;2022-10-31T08:45:21;7.90;;;4.45;;
6163;SDS011;3114;48.362;10.994;2022-10-31T08:47:47;9.32;;;4.60;;
6163;SDS011;3114;48.362;10.994;2022-10-31T08:50:14;11.88;;;5.60;;
6163;SDS011;3114;48.362;10.994;2022-10-31T08:52:41;13.52;;;6.00;;
6163;SDS011;3114;48.362;10.994;2022-10-31T08:55:08;11.15;;;6.20;;
6163;SDS011;3114;48.362;10.994;2022-10-31T08:57:36;12.88;;;6.97;;
6163;SDS011;3114;48.362;10.994;2022-10-31T09:00:04;13.88;;;6.32;;
6163;SDS011;3114;48.362;10.994;2022-10-31T09:02:31;13.57;;;6.65;;
6163;SDS011;3114;48.362;10.994;2022-10-31T09:07:28;15.25;;;7.22;;
6163;SDS011;3114;48.362;10.994;2022-10-31T09:09:55;13.63;;;6.18;;
6163;SDS011;3114;48.362;10.994;2022-10-31T09:12:22;11.88;;;6.35;;
6163;SDS011;3114;48.362;10.994;2022-10-31T09:14:51;13.48;;;6.20;;
6163;SDS011;3114;48.362;10.994;2022-10-31T09:17:18;14.85;;;6.70;;
6163;SDS011;3114;48.362;10.994;2022-10-31T09:19:44;13.52;;;6.82;;
6163;SDS011;3114;48.362;10.994;2022-10-31T09:22:11;16.08;;;6.70;;
6163;SDS011;3114;48.362;10.994;2022-10-31T09:24:38;13.85;;;6.80;;
6163;SDS011;3114;48.362;10.994;2022-10-31T09:27:05;13.30;;;6.28;;
6163;SDS011;3114;48.362;10.994;2022-10-31T09:29:33;12.30;;;6.60;;
6163;SDS011;3114;48.362;10.994;2022-10-31T09:32:01;11.20;;;6.60;;
6163;SDS011;3114;48.362;10.994;2022-10-31T09:34:36;11.52;;;6.80;;
6163;SDS011;3114;48.362;10.994;2022-10-31T09:37:03;13.50;;;6.65;;
6163;SDS011;3114;48.362;10.994;2022-10-31T09:39:30;11.48;;;6.63;;
6163;SDS011;3114;48.362;10.994;2022-10-31T09:42:02;17.75;;;7.38;;
6163;SDS011;3114;48.362;10.994;2022-10-31T09:44:43;15.35;;;7.55;;
6163;SDS011;3114;48.362;10.994;2022-10-31T09:47:16;16.70;;;7.18;;
6163;SDS011;3114;48.362;10.994;2022-10-31T09:50:00;14.80;;;8.60;;
6163;SDS011;3114;48.362;10.994;2022-10-31T09:52:36;19.67;;;7.85;;
6163;SDS011;3114;48.362;10.994;2022-10-31T09:55:08;16.95;;;7.75;;
6163;SDS011;3114;48.362;10.994;2022-10-31T09:57:42;15.50;;;7.30;;
6163;SDS011;3114;48.362;10.994;2022-10-31T10:00:14;12.23;;;7.15;;
6163;SDS011;3114;48.362;10.994;2022-10-31T10:02:44;16.98;;;7.32;;
6163;SDS011;3114;48.362;10.994;2022-10-31T10:05:17;10.90;;;6.68;;
6163;SDS011;3114;48.362;10.994;2022-10-31T10:07:49;13.43;;;8.25;;
6163;SDS011;3114;48.362;10.994;2022-10-31T10:10:25;18.20;;;8.13;;
6163;SDS011;3114;48.362;10.994;2022-10-31T10:13:05;16.13;;;8.90;;
6163;SDS011;3114;48.362;10.994;2022-10-31T10:15:50;18.13;;;9.23;;
6163;SDS011;3114;48.362;10.994;2022-10-31T10:18:29;13.77;;;9.15;;
6163;SDS011;3114;48.362;10.994;2022-10-31T10:21:09;14.02;;;8.98;;
6163;SDS011;3114;48.362;10.994;2022-10-31T10:23:50;16.75;;;9.73;;
6163;SDS011;3114;48.362;10.994;2022-10-31T10:26:25;15.85;;;9.63;;
6163;SDS011;3114;48.362;10.994;2022-10-31T10:28:58;18.05;;;9.82;;
6163;SDS011;3114;48.362;10.994;2022-10-31T10:31:32;16.90;;;8.77;;
6163;SDS011;3114;48.362;10.994;2022-10-31T10:34:06;16.27;;;9.30;;
6163;SDS011;3114;48.362;10.994;2022-10-31T10:36:41;15.70;;;9.43;;
6163;SDS011;3114;48.362;10.994;2022-10-31T10:39:11;17.15;;;9.90;;
6163;SDS011;3114;48.362;10.994;2022-10-31T10:41:44;15.65;;;9.32;;
6163;SDS011;3114;48.362;10.994;2022-10-31T10:44:27;13.68;;;9.10;;
6163;SDS011;3114;48.362;10.994;2022-10-31T10:47:11;14.38;;;9.60;;
6163;SDS011;3114;48.362;10.994;2022-10-31T10:49:56;14.93;;;9.07;;
6163;SDS011;3114;48.362;10.994;2022-10-31T10:52:26;15.45;;;9.02;;
6163;SDS011;3114;48.362;10.994;2022-10-31T10:55:01;15.48;;;10.05;;
6163;SDS011;3114;48.362;10.994;2022-10-31T10:57:38;18.50;;;10.50;;
6163;SDS011;3114;48.362;10.994;2022-10-31T11:00:19;37.78;;;28.60;;
6163;SDS011;3114;48.362;10.994;2022-10-31T11:02:47;57.08;;;40.90;;
6163;SDS011;3114;48.362;10.994;2022-10-31T11:05:19;21.77;;;15.57;;
6163;SDS011;3114;48.362;10.994;2022-10-31T11:07:51;13.80;;;9.80;;
6163;SDS011;3114;48.362;10.994;2022-10-31T11:10:18;18.65;;;9.30;;
6163;SDS011;3114;48.362;10.994;2022-10-31T11:12:45;16.05;;;10.27;;
6163;SDS011;3114;48.362;10.994;2022-10-31T11:15:26;16.35;;;10.10;;
6163;SDS011;3114;48.362;10.994;2022-10-31T11:17:56;17.67;;;10.50;;
6163;SDS011;3114;48.362;10.994;2022-10-31T11:20:26;16.45;;;10.40;;
6163;SDS011;3114;48.362;10.994;2022-10-31T11:23:17;17.55;;;9.98;;
6163;SDS011;3114;48.362;10.994;2022-10-31T11:25:48;15.30;;;10.45;;
6163;SDS011;3114;48.362;10.994;2022-10-31T11:28:17;19.15;;;10.25;;
6163;SDS011;3114;48.362;10.994;2022-10-31T11:30:45;18.45;;;10.45;;
6163;SDS011;3114;48.362;10.994;2022-10-31T11:33:16;16.63;;;10.23;;
6163;SDS011;3114;48.362;10.994;2022-10-31T11:35:47;16.45;;;11.38;;
6163;SDS011;3114;48.362;10.994;2022-10-31T11:38:17;16.27;;;11.07;;
6163;SDS011;3114;48.362;10.994;2022-10-31T11:40:53;17.38;;;10.73;;
6163;SDS011;3114;48.362;10.994;2022-10-31T11:43:22;16.38;;;10.73;;
6163;SDS011;3114;48.362;10.994;2022-10-31T11:45:49;16.15;;;10.80;;
6163;SDS011;3114;48.362;10.994;2022-10-31T11:48:17;16.55;;;10.07;;
6163;SDS011;3114;48.362;10.994;2022-10-31T11:50:50;15.68;;;10.32;;
6163;SDS011;3114;48.362;10.994;2022-10-31T11:53:21;17.20;;;11.20;;
6163;SDS011;3114;48.362;10.994;2022-10-31T11:55:59;15.95;;;10.50;;
6163;SDS011;3114;48.362;10.994;2022-10-31T11:58:29;15.80;;;10.20;;
6163;SDS011;3114;48.362;10.994;2022-10-31T12:00:57;17.40;;;10.60;;
6163;SDS011;3114;48.362;10.994;2022-10-31T12:03:27;13.73;;;9.52;;
6163;SDS011;3114;48.362;10.994;2022-10-31T12:06:15;16.10;;;9.50;;
6163;SDS011;3114;48.362;10.994;2022-10-31T12:08:48;15.88;;;9.70;;
6163;SDS011;3114;48.362;10.994;2022-10-31T12:11:30;14.32;;;9.80;;
6163;SDS011;3114;48.362;10.994;2022-10-31T12:14:08;11.63;;;8.93;;
6163;SDS011;3114;48.362;10.994;2022-10-31T12:16:46;14.52;;;9.23;;
6163;SDS011;3114;48.362;10.994;2022-10-31T12:19:21;12.63;;;8.57;;
6163;SDS011;3114;48.362;10.994;2022-10-31T12:22:06;13.60;;;8.68;;
6163;SDS011;3114;48.362;10.994;2022-10-31T12:24:44;16.02;;;8.35;;
6163;SDS011;3114;48.362;10.994;2022-10-31T12:27:29;15.13;;;8.50;;
6163;SDS011;3114;48.362;10.994;2022-10-31T12:30:13;16.50;;;9.00;;
6163;SDS011;3114;48.362;10.994;2022-10-31T12:32:52;11.93;;;8.48;;
6163;SDS011;3114;48.362;10.994;2022-10-31T12:35:40;13.77;;;7.80;;
6163;SDS011;3114;48.362;10.994;2022-10-31T12:38:18;11.55;;;8.50;;
6163;SDS011;3114;48.362;10.994;2022-10-31T12:41:08;13.80;;;8.70;;
6163;SDS011;3114;48.362;10.994;2022-10-31T12:43:46;11.38;;;7.85;;
6163;SDS011;3114;48.362;10.994;2022-10-31T12:46:21;14.55;;;8.48;;
6163;SDS011;3114;48.362;10.994;2022-10-31T12:49:03;14.23;;;8.60;;
6163;SDS011;3114;48.362;10.994;2022-10-31T12:51:55;15.57;;;8.95;;
6163;SDS011;3114;48.362;10.994;2022-10-31T12:54:39;14.85;;;9.25;;
6163;SDS011;3114;48.362;10.994;2022-10-31T12:57:22;12.13;;;8.88;;
6163;SDS011;3114;48.362;10.994;2022-10-31T12:59:56;13.25;;;8.60;;
6163;SDS011;3114;48.362;10.994;2022-10-31T13:02:27;17.15;;;9.00;;
6163;SDS011;3114;48.362;10.994;2022-10-31T13:04:58;13.70;;;9.65;;
6163;SDS011;3114;48.362;10.994;2022-10-31T13:07:29;14.90;;;9.82;;
6163;SDS011;3114;48.362;10.994;2022-10-31T13:10:04;13.70;;;9.75;;
6163;SDS011;3114;48.362;10.994;2022-10-31T13:12:41;11.23;;;9.38;;
6163;SDS011;3114;48.362;10.994;2022-10-31T13:15:12;17.17;;;9.27;;
6163;SDS011;3114;48.362;10.994;2022-10-31T13:17:44;15.30;;;9.43;;
6163;SDS011;3114;48.362;10.994;2022-10-31T13:23:07;11.75;;;8.60;;
6163;SDS011;3114;48.362;10.994;2022-10-31T13:25:42;14.65;;;9.27;;
6163;SDS011;3114;48.362;10.994;2022-10-31T13:28:20;12.13;;;8.85;;
6163;SDS011;3114;48.362;10.994;2022-10-31T13:30:52;13.20;;;8.95;;
6163;SDS011;3114;48.362;10.994;2022-10-31T13:33:20;14.50;;;8.93;;
6163;SDS011;3114;48.362;10.994;2022-10-31T13:35:51;11.52;;;9.25;;
6163;SDS011;3114;48.362;10.994;2022-10-31T13:38:27;11.88;;;9.27;;
6163;SDS011;3114;48.362;10.994;2022-10-31T13:41:00;14.30;;;9.25;;
6163;SDS011;3114;48.362;10.994;2022-10-31T13:43:33;13.05;;;9.25;;
6163;SDS011;3114;48.362;10.994;2022-10-31T13:46:21;12.77;;;9.32;;
6163;SDS011;3114;48.362;10.994;2022-10-31T13:48:49;11.85;;;9.65;;
6163;SDS011;3114;48.362;10.994;2022-10-31T13:51:23;10.68;;;8.88;;
6163;SDS011;3114;48.362;10.994;2022-10-31T13:53:57;13.50;;;9.95;;
6163;SDS011;3114;48.362;10.994;2022-10-31T13:56:26;10.57;;;9.25;;
6163;SDS011;3114;48.362;10.994;2022-10-31T13:58:58;12.25;;;9.77;;
6163;SDS011;3114;48.362;10.994;2022-10-31T14:01:27;12.82;;;9.50;;
6163;SDS011;3114;48.362;10.994;2022-10-31T14:03:56;14.77;;;9.98;;
6163;SDS011;3114;48.362;10.994;2022-10-31T14:06:41;15.65;;;10.45;;
6163;SDS011;3114;48.362;10.994;2022-10-31T14:09:22;92.20;;;69.07;;
6163;SDS011;3114;48.362;10.994;2022-10-31T14:11:52;86.88;;;64.82;;
6163;SDS011;3114;48.362;10.994;2022-10-31T14:14:22;69.60;;;52.50;;
6163;SDS011;3114;48.362;10.994;2022-10-31T14:16:55;12.93;;;11.23;;
6163;SDS011;3114;48.362;10.994;2022-10-31T14:19:24;13.68;;;10.13;;
6163;SDS011;3114;48.362;10.994;2022-10-31T14:21:52;11.82;;;9.85;;
6163;SDS011;3114;48.362;10.994;2022-10-31T14:24:35;15.60;;;10.57;;
6163;SDS011;3114;48.362;10.994;2022-10-31T14:27:04;12.63;;;10.63;;
6163;SDS011;3114;48.362;10.994;2022-10-31T14:29:47;11.50;;;10.27;;
6163;SDS011;3114;48.362;10.994;2022-10-31T14:32:18;11.63;;;10.32;;
6163;SDS011;3114;48.362;10.994;2022-10-31T14:34:51;13.02;;;9.90;;
6163;SDS011;3114;48.362;10.994;2022-10-31T14:37:24;12.35;;;9.18;;
6163;SDS011;3114;48.362;10.994;2022-10-31T14:40:05;12.98;;;10.02;;
6163;SDS011;3114;48.362;10.994;2022-10-31T14:42:47;11.05;;;9.77;;
6163;SDS011;3114;48.362;10.994;2022-10-31T14:45:26;11.68;;;9.68;;
6163;SDS011;3114;48.362;10.994;2022-10-31T14:48:03;12.98;;;9.55;;
6163;SDS011;3114;48.362;10.994;2022-10-31T14:50:40;11.15;;;9.13;;
6163;SDS011;3114;48.362;10.994;2022-10-31T14:53:12;10.73;;;9.20;;
6163;SDS011;3114;48.362;10.994;2022-10-31T14:55:46;11.00;;;9.40;;
6163;SDS011;3114;48.362;10.994;2022-10-31T14:58:16;11.02;;;9.38;;
6163;SDS011;3114;48.362;10.994;2022-10-31T15:00:47;11.23;;;9.13;;
6163;SDS011;3114;48.362;10.994;2022-10-31T15:03:15;12.52;;;9.45;;
6163;SDS011;3114;48.362;10.994;2022-10-31T15:05:45;10.90;;;9.88;;
6163;SDS011;3114;48.362;10.994;2022-10-31T15:08:25;9.82;;;8.82;;
6163;SDS011;3114;48.362;10.994;2022-10-31T15:10:55;11.90;;;8.90;;
6163;SDS011;3114;48.362;10.994;2022-10-31T15:13:22;11.77;;;8.35;;
6163;SDS011;3114;48.362;10.994;2022-10-31T15:15:51;9.35;;;8.45;;
6163;SDS011;3114;48.362;10.994;2022-10-31T15:18:21;10.38;;;9.05;;
6163;SDS011;3114;48.362;10.994;2022-10-31T15:20:51;9.45;;;8.40;;
6163;SDS011;3114;48.362;10.994;2022-10-31T15:23:21;10.05;;;9.02;;